createdAt,value
2022-09-11T00:01:33.574Z,14.57
2022-09-11T00:04:01.371Z,18.27
2022-09-11T00:06:30.959Z,17.20
2022-09-11T00:09:00.518Z,15.70
2022-09-11T00:11:28.798Z,14.20
2022-09-11T00:13:56.628Z,15.80
2022-09-11T00:16:26.922Z,14.83
2022-09-11T00:18:55.278Z,17.03
2022-09-11T00:21:23.200Z,15.03
2022-09-11T00:23:53.318Z,17.03
2022-09-11T00:26:21.389Z,15.27
2022-09-11T00:28:50.577Z,15.20
2022-09-11T00:31:19.267Z,14.43
2022-09-11T00:33:46.982Z,17.90
2022-09-11T00:36:15.764Z,13.80
2022-09-11T00:38:43.619Z,16.00
2022-09-11T00:41:15.172Z,15.00
2022-09-11T00:43:53.962Z,15.83
2022-09-11T00:46:21.838Z,14.50
2022-09-11T00:48:50.186Z,16.30
2022-09-11T00:51:20.658Z,20.07
2022-09-11T00:53:48.489Z,15.67
2022-09-11T00:56:18.127Z,15.33
2022-09-11T00:58:45.974Z,19.60
2022-09-11T01:01:14.702Z,14.20
2022-09-11T01:03:42.729Z,17.90
2022-09-11T01:06:11.040Z,13.37
2022-09-11T01:08:39.174Z,14.00
2022-09-11T01:11:15.543Z,19.50
2022-09-11T01:13:47.177Z,16.43
2022-09-11T01:16:18.782Z,16.40
2022-09-11T01:18:49.695Z,15.90
2022-09-11T01:21:33.871Z,16.07
2022-09-11T01:24:09.271Z,17.40
2022-09-11T01:26:50.544Z,18.03
2022-09-11T01:29:22.080Z,16.93
2022-09-11T01:31:54.513Z,17.63
2022-09-11T01:34:24.066Z,18.27
2022-09-11T01:36:54.074Z,18.27
2022-09-11T01:39:22.787Z,16.40
2022-09-11T01:41:53.151Z,18.10
2022-09-11T01:44:24.809Z,15.63
2022-09-11T01:46:53.349Z,14.63
2022-09-11T01:49:25.720Z,16.67
2022-09-11T01:51:54.590Z,20.03
2022-09-11T01:54:23.840Z,17.50
2022-09-11T01:56:53.708Z,18.67
2022-09-11T01:59:26.305Z,18.07
2022-09-11T02:01:59.188Z,15.90
2022-09-11T02:04:29.739Z,17.97
2022-09-11T02:06:59.630Z,17.40
2022-09-11T02:09:28.576Z,15.50
2022-09-11T02:11:56.490Z,21.20
2022-09-11T02:14:28.139Z,18.77
2022-09-11T02:17:12.707Z,20.30
2022-09-11T02:19:43.496Z,19.90
2022-09-11T02:22:28.147Z,16.80
2022-09-11T02:24:56.621Z,19.10
2022-09-11T02:27:35.612Z,18.23
2022-09-11T02:30:21.471Z,17.27
2022-09-11T02:33:06.593Z,17.90
2022-09-11T02:35:49.642Z,19.57
2022-09-11T02:38:20.304Z,17.13
2022-09-11T02:41:00.502Z,18.10
2022-09-11T02:43:50.453Z,18.83
2022-09-11T02:46:49.838Z,17.10
2022-09-11T02:49:35.274Z,15.90
2022-09-11T02:52:28.943Z,16.87
2022-09-11T02:55:17.581Z,19.03
2022-09-11T02:58:05.812Z,20.57
2022-09-11T03:00:40.799Z,18.60
2022-09-11T03:03:26.066Z,18.23
2022-09-11T03:06:09.772Z,17.10
2022-09-11T03:08:43.444Z,15.73
2022-09-11T03:11:17.911Z,18.37
2022-09-11T03:13:47.010Z,19.60
2022-09-11T03:16:15.127Z,20.33
2022-09-11T03:18:44.771Z,19.83
2022-09-11T03:21:15.320Z,19.43
2022-09-11T03:23:43.548Z,18.80
2022-09-11T03:26:15.660Z,17.23
2022-09-11T03:28:49.180Z,21.13
2022-09-11T03:31:18.432Z,20.83
2022-09-11T03:33:51.171Z,17.43
2022-09-11T03:36:22.435Z,19.70
2022-09-11T03:39:02.764Z,17.10
2022-09-11T03:41:30.962Z,18.10
2022-09-11T03:43:59.079Z,17.70
2022-09-11T03:46:28.074Z,19.40
2022-09-11T03:48:57.560Z,20.10
2022-09-11T03:51:26.422Z,24.53
2022-09-11T03:54:08.518Z,19.20
2022-09-11T03:56:46.469Z,19.53
2022-09-11T03:59:14.496Z,18.70
2022-09-11T04:01:44.520Z,18.53
2022-09-11T04:04:15.132Z,17.83
2022-09-11T04:06:43.950Z,20.43
2022-09-11T04:09:12.207Z,20.30
2022-09-11T04:11:46.170Z,19.50
2022-09-11T04:14:14.191Z,16.40
2022-09-11T04:16:42.310Z,18.83
2022-09-11T04:19:13.673Z,17.73
2022-09-11T04:21:43.351Z,17.03
2022-09-11T04:24:18.945Z,17.23
2022-09-11T04:26:50.146Z,15.37
2022-09-11T04:29:18.599Z,20.47
2022-09-11T04:31:46.635Z,18.87
2022-09-11T04:34:33.820Z,20.90
2022-09-11T04:37:05.017Z,17.60
2022-09-11T04:39:34.230Z,20.07
2022-09-11T04:42:04.438Z,20.00
2022-09-11T04:44:32.616Z,19.20
2022-09-11T04:47:00.427Z,20.77
2022-09-11T04:49:28.220Z,20.57
2022-09-11T04:51:58.249Z,22.13
2022-09-11T04:54:28.980Z,25.50
2022-09-11T04:56:58.065Z,19.33
2022-09-11T04:59:30.523Z,22.30
2022-09-11T05:01:58.744Z,20.17
2022-09-11T05:04:28.550Z,21.40
2022-09-11T05:06:56.537Z,20.23
2022-09-11T05:09:24.600Z,19.83
2022-09-11T05:12:11.249Z,19.80
2022-09-11T05:14:39.179Z,20.90
2022-09-11T05:17:13.705Z,20.57
2022-09-11T05:19:50.991Z,27.47
2022-09-11T05:22:22.374Z,19.90
2022-09-11T05:25:12.269Z,20.47
2022-09-11T05:27:50.996Z,20.73
2022-09-11T05:30:25.093Z,19.27
2022-09-11T05:33:07.915Z,21.07
2022-09-11T05:35:35.946Z,23.00
2022-09-11T05:38:04.066Z,22.27
2022-09-11T05:40:38.521Z,20.37
2022-09-11T05:43:10.164Z,20.43
2022-09-11T05:45:38.540Z,22.90
2022-09-11T05:48:06.836Z,21.33
2022-09-11T05:50:37.413Z,20.20
2022-09-11T05:53:11.743Z,21.23
2022-09-11T05:55:50.243Z,20.00
2022-09-11T05:58:19.908Z,19.80
2022-09-11T06:00:58.618Z,19.73
2022-09-11T06:03:32.912Z,17.33
2022-09-11T06:06:03.377Z,19.87
2022-09-11T06:08:35.486Z,19.57
2022-09-11T06:11:06.098Z,19.40
2022-09-11T06:13:42.153Z,19.07
2022-09-11T06:16:13.407Z,18.50
2022-09-11T06:18:43.992Z,18.20
2022-09-11T06:21:12.650Z,17.20
2022-09-11T06:23:40.794Z,18.80
2022-09-11T06:26:17.442Z,18.40
2022-09-11T06:28:47.893Z,16.10
2022-09-11T06:31:30.060Z,15.70
2022-09-11T06:34:09.197Z,15.63
2022-09-11T06:36:54.202Z,15.83
2022-09-11T06:39:22.861Z,15.57
2022-09-11T06:41:58.576Z,17.43
2022-09-11T06:44:39.335Z,17.10
2022-09-11T06:47:10.425Z,15.30
2022-09-11T06:49:38.404Z,14.03
2022-09-11T06:52:09.362Z,14.03
2022-09-11T06:54:40.444Z,13.60
2022-09-11T06:57:18.963Z,13.40
2022-09-11T06:59:55.093Z,13.83
2022-09-11T07:02:30.580Z,13.10
2022-09-11T07:05:04.099Z,11.60
2022-09-11T07:07:37.202Z,13.00
2022-09-11T07:10:06.353Z,13.10
2022-09-11T07:12:34.314Z,11.30
2022-09-11T07:15:11.016Z,12.13
2022-09-11T07:17:38.959Z,11.87
2022-09-11T07:20:08.369Z,10.80
2022-09-11T07:22:36.458Z,12.10
2022-09-11T07:25:10.638Z,11.17
2022-09-11T07:27:38.792Z,11.20
2022-09-11T07:30:35.474Z,10.20
2022-09-11T07:33:03.486Z,6.90
2022-09-11T07:35:31.509Z,42.83
2022-09-11T07:37:59.784Z,25.70
2022-09-11T07:40:27.789Z,19.63
2022-09-11T07:42:55.790Z,23.13
2022-09-11T07:45:24.893Z,23.30
2022-09-11T07:47:52.563Z,21.03
2022-09-11T07:50:20.295Z,31.67
2022-09-11T07:52:48.558Z,32.53
2022-09-11T07:55:16.375Z,27.20
2022-09-11T07:57:45.489Z,28.53
2022-09-11T08:00:16.619Z,28.63
2022-09-11T08:02:46.077Z,26.97
2022-09-11T08:05:14.004Z,29.30
2022-09-11T08:07:41.968Z,27.40
2022-09-11T08:10:26.693Z,39.23
2022-09-11T08:12:59.633Z,42.00
2022-09-11T08:15:28.119Z,27.43
2022-09-11T08:17:57.368Z,27.77
2022-09-11T08:20:25.387Z,23.87
2022-09-11T08:22:53.456Z,27.27
2022-09-11T08:25:21.842Z,23.23
2022-09-11T08:27:50.287Z,29.07
2022-09-11T08:30:18.259Z,24.23
2022-09-11T08:32:46.543Z,24.70
2022-09-11T08:35:16.080Z,24.80
2022-09-11T08:37:43.875Z,18.90
2022-09-11T08:40:11.705Z,23.10
2022-09-11T08:42:40.719Z,20.90
2022-09-11T08:45:11.308Z,20.90
2022-09-11T08:47:39.489Z,42.60
2022-09-11T08:50:09.422Z,52.33
2022-09-11T08:52:39.505Z,31.33
2022-09-11T08:55:10.684Z,25.53
2022-09-11T08:57:41.422Z,21.47
2022-09-11T09:00:14.958Z,21.20
2022-09-11T09:03:02.617Z,17.60
2022-09-11T09:05:34.404Z,15.00
2022-09-11T09:08:08.315Z,15.97
2022-09-11T09:10:44.894Z,14.63
2022-09-11T09:13:22.576Z,15.07
2022-09-11T09:15:54.846Z,10.30
2022-09-11T09:18:26.822Z,13.40
2022-09-11T09:21:01.003Z,11.30
2022-09-11T09:23:33.141Z,8.93
2022-09-11T09:26:01.070Z,14.60
2022-09-11T09:28:32.124Z,10.63
2022-09-11T09:31:01.621Z,11.13
2022-09-11T09:33:32.156Z,11.47
2022-09-11T09:36:04.024Z,12.43
2022-09-11T09:38:33.417Z,12.27
2022-09-11T09:41:09.797Z,12.03
2022-09-11T09:43:41.646Z,10.23
2022-09-11T09:46:15.490Z,11.33
2022-09-11T09:48:43.710Z,8.87
2022-09-11T09:51:13.885Z,10.00
2022-09-11T09:53:44.570Z,10.40
2022-09-11T09:56:14.155Z,9.50
2022-09-11T09:58:43.227Z,11.07
2022-09-11T10:01:32.295Z,8.80
2022-09-11T10:04:10.830Z,10.30
2022-09-11T10:06:38.634Z,11.40
2022-09-11T10:09:10.224Z,9.23
2022-09-11T10:11:38.260Z,9.70
2022-09-11T10:14:10.140Z,9.27
2022-09-11T10:16:40.243Z,29.13
2022-09-11T10:19:09.618Z,15.37
2022-09-11T10:21:39.692Z,8.13
2022-09-11T10:24:23.369Z,7.60
2022-09-11T10:26:53.213Z,17.10
2022-09-11T10:29:24.368Z,10.63
2022-09-11T10:31:53.046Z,14.40
2022-09-11T10:34:22.340Z,6.23
2022-09-11T10:36:53.830Z,6.27
2022-09-11T10:39:26.806Z,8.47
2022-09-11T10:42:05.604Z,6.77
2022-09-11T10:44:37.005Z,12.53
2022-09-11T10:47:06.619Z,3.73
2022-09-11T10:49:34.907Z,3.07
2022-09-11T10:52:08.867Z,2.60
2022-09-11T10:54:47.337Z,2.63
2022-09-11T10:57:19.240Z,2.30
2022-09-11T10:59:56.774Z,2.47
2022-09-11T11:02:31.866Z,1.60
2022-09-11T11:05:06.072Z,1.90
2022-09-11T11:08:13.769Z,2.40
2022-09-11T11:10:51.267Z,1.70
2022-09-11T11:13:36.222Z,3.10
2022-09-11T11:16:08.612Z,1.87
2022-09-11T11:18:51.878Z,1.50
2022-09-11T11:21:31.316Z,2.30
2022-09-11T11:24:13.607Z,2.60
2022-09-11T11:26:54.146Z,1.40
2022-09-11T11:29:33.904Z,1.23
2022-09-11T11:32:22.545Z,1.40
2022-09-11T11:35:01.561Z,1.40
2022-09-11T11:37:31.670Z,4.70
2022-09-11T11:40:01.514Z,2.23
2022-09-11T11:42:31.922Z,4.10
2022-09-11T11:45:01.644Z,1.30
2022-09-11T11:47:30.818Z,1.03
2022-09-11T11:50:02.567Z,1.03
2022-09-11T11:52:54.045Z,0.80
2022-09-11T11:55:22.855Z,1.50
2022-09-11T11:57:56.808Z,2.50
2022-09-11T12:00:24.648Z,5.40
2022-09-11T12:02:55.044Z,3.23
2022-09-11T12:05:24.989Z,1.27
2022-09-11T12:07:52.830Z,1.33
2022-09-11T12:10:23.496Z,0.60
2022-09-11T12:12:54.847Z,0.70
2022-09-11T12:15:23.447Z,2.40
2022-09-11T12:18:00.627Z,1.70
2022-09-11T12:20:36.855Z,0.50
2022-09-11T12:23:05.770Z,0.70
2022-09-11T12:26:04.953Z,0.73
2022-09-11T12:28:35.696Z,0.70
2022-09-11T12:31:05.117Z,1.33
2022-09-11T12:33:54.575Z,1.00
2022-09-11T12:36:45.091Z,1.00
2022-09-11T12:39:20.178Z,0.80
2022-09-11T12:41:48.054Z,0.80
2022-09-11T12:44:51.906Z,1.10
2022-09-11T12:47:21.552Z,1.90
2022-09-11T12:49:54.295Z,1.00
2022-09-11T12:52:33.913Z,1.43
2022-09-11T12:55:05.740Z,0.80
2022-09-11T12:57:35.313Z,1.00
2022-09-11T13:00:05.411Z,0.97
2022-09-11T13:02:36.159Z,0.90
2022-09-11T13:05:04.639Z,1.40
2022-09-11T13:07:34.911Z,4.73
2022-09-11T13:10:08.018Z,1.90
2022-09-11T13:12:48.045Z,0.90
2022-09-11T13:15:32.386Z,1.10
2022-09-11T13:18:01.784Z,1.07
2022-09-11T13:20:30.536Z,1.40
2022-09-11T13:23:13.044Z,1.00
2022-09-11T13:25:41.566Z,1.20
2022-09-11T13:28:10.502Z,4.80
2022-09-11T13:30:38.253Z,5.27
2022-09-11T13:33:09.587Z,2.00
2022-09-11T13:35:40.320Z,1.07
2022-09-11T13:38:10.012Z,0.90
2022-09-11T13:40:42.344Z,1.70
2022-09-11T13:43:11.281Z,1.10
2022-09-11T13:45:39.605Z,1.30
2022-09-11T13:48:19.475Z,1.20
2022-09-11T13:50:47.739Z,2.10
2022-09-11T13:53:15.673Z,1.27
2022-09-11T13:55:46.887Z,1.53
2022-09-11T13:58:23.245Z,0.93
2022-09-11T14:00:51.198Z,1.23
2022-09-11T14:03:22.446Z,3.40
2022-09-11T14:05:53.962Z,1.43
2022-09-11T14:08:32.777Z,3.53
2022-09-11T14:11:02.316Z,1.20
2022-09-11T14:13:33.228Z,1.10
2022-09-11T14:16:03.046Z,2.70
2022-09-11T14:18:34.596Z,1.20
2022-09-11T14:21:05.384Z,1.10
2022-09-11T14:23:33.402Z,1.10
2022-09-11T14:26:09.480Z,4.80
2022-09-11T14:28:42.448Z,1.87
2022-09-11T14:31:11.797Z,2.23
2022-09-11T14:33:41.716Z,1.03
2022-09-11T14:36:16.008Z,1.10
2022-09-11T14:38:43.991Z,2.03
2022-09-11T14:41:13.520Z,1.20
2022-09-11T14:43:41.870Z,1.00
2022-09-11T14:46:10.041Z,0.80
2022-09-11T14:48:38.129Z,1.00
2022-09-11T14:51:12.725Z,1.87
2022-09-11T14:53:42.966Z,0.70
2022-09-11T14:56:11.153Z,1.00
2022-09-11T14:58:39.000Z,0.97
2022-09-11T15:01:07.194Z,0.77
2022-09-11T15:03:36.286Z,0.70
2022-09-11T15:06:05.043Z,0.87
2022-09-11T15:08:34.429Z,1.10
2022-09-11T15:11:02.310Z,1.00
2022-09-11T15:13:30.408Z,0.80
2022-09-11T15:15:59.078Z,0.77
2022-09-11T15:18:27.628Z,0.90
2022-09-11T15:20:55.587Z,1.00
2022-09-11T15:23:23.662Z,1.40
2022-09-11T15:25:58.969Z,1.00
2022-09-11T15:28:29.547Z,0.90
2022-09-11T15:30:58.931Z,0.90
2022-09-11T15:33:27.148Z,1.80
2022-09-11T15:35:56.879Z,0.90
2022-09-11T15:38:24.834Z,0.90
2022-09-11T15:40:56.804Z,1.10
2022-09-11T15:43:26.584Z,2.53
2022-09-11T15:45:56.815Z,0.90
2022-09-11T15:48:24.770Z,0.90
2022-09-11T15:51:00.248Z,0.90
2022-09-11T15:53:28.387Z,1.13
2022-09-11T15:56:09.263Z,0.80
2022-09-11T15:58:37.974Z,1.60
2022-09-11T16:01:06.167Z,0.80
2022-09-11T16:03:34.406Z,1.23
2022-09-11T16:06:02.834Z,1.10
2022-09-11T16:08:30.758Z,1.10
2022-09-11T16:11:02.276Z,0.80
2022-09-11T16:13:33.142Z,1.37
2022-09-11T16:16:05.627Z,1.03
2022-09-11T16:18:35.773Z,0.80
2022-09-11T16:21:07.776Z,1.37
2022-09-11T16:23:38.630Z,0.90
2022-09-11T16:26:09.816Z,1.20
2022-09-11T16:28:40.332Z,0.90
2022-09-11T16:31:12.269Z,1.30
2022-09-11T16:33:52.236Z,1.00
2022-09-11T16:36:22.607Z,1.00
2022-09-11T16:38:51.859Z,1.10
2022-09-11T16:41:20.717Z,6.63
2022-09-11T16:43:51.001Z,0.93
2022-09-11T16:46:20.214Z,2.97
2022-09-11T16:48:51.889Z,1.10
2022-09-11T16:51:23.569Z,1.37
2022-09-11T16:53:54.675Z,4.13
2022-09-11T16:56:28.681Z,4.57
2022-09-11T16:58:58.508Z,4.00
2022-09-11T17:01:27.696Z,2.53
2022-09-11T17:03:57.459Z,1.70
2022-09-11T17:06:30.499Z,4.10
2022-09-11T17:09:00.321Z,5.70
2022-09-11T17:11:46.474Z,1.27
2022-09-11T17:14:20.732Z,1.03
2022-09-11T17:16:49.397Z,1.10
2022-09-11T17:19:17.764Z,0.97
2022-09-11T17:21:48.301Z,1.20
2022-09-11T17:24:20.373Z,1.10
2022-09-11T17:26:54.207Z,1.27
2022-09-11T17:29:25.874Z,1.13
2022-09-11T17:32:23.918Z,0.93
2022-09-11T17:34:47.144Z,1.13
2022-09-11T17:37:23.731Z,1.83
2022-09-11T17:39:56.413Z,2.07
2022-09-11T17:42:28.342Z,3.43
2022-09-11T17:45:07.697Z,1.33
2022-09-11T17:50:29.416Z,1.73
2022-09-11T17:53:04.673Z,3.00
2022-09-11T17:55:55.586Z,1.33
2022-09-11T17:58:31.961Z,2.20
2022-09-11T18:01:17.073Z,2.40
2022-09-11T18:03:49.183Z,2.97
2022-09-11T18:06:34.329Z,1.63
2022-09-11T18:09:11.842Z,1.97
2022-09-11T18:12:02.363Z,2.60
2022-09-11T18:14:47.927Z,9.40
2022-09-11T18:21:08.868Z,10.00
2022-09-11T18:27:09.796Z,7.23
2022-09-11T18:29:53.607Z,8.90
2022-09-11T18:35:31.591Z,10.90
2022-09-11T18:38:04.378Z,9.70
2022-09-11T18:40:53.736Z,7.53
2022-09-11T18:43:29.635Z,10.43
2022-09-11T18:46:09.841Z,10.10
2022-09-11T18:49:02.183Z,11.60
2022-09-11T18:51:41.878Z,13.43
2022-09-11T18:54:45.794Z,11.77
2022-09-11T18:57:25.386Z,9.20
2022-09-11T19:00:03.386Z,8.43
2022-09-11T19:02:42.224Z,9.60
2022-09-11T19:05:51.086Z,12.70
2022-09-11T19:08:25.598Z,12.50
2022-09-11T19:11:00.240Z,9.40
2022-09-11T19:13:28.540Z,12.33
2022-09-11T19:16:17.395Z,13.20
2022-09-11T19:18:48.323Z,13.47
2022-09-11T19:21:22.554Z,12.87
2022-09-11T19:24:03.737Z,16.83
2022-09-11T19:26:55.931Z,12.17
2022-09-11T19:29:24.224Z,13.60
2022-09-11T19:32:00.356Z,23.30
2022-09-11T19:34:33.259Z,30.63
2022-09-11T19:37:16.266Z,18.07
2022-09-11T19:39:50.908Z,17.00
2022-09-11T19:42:23.653Z,15.47
2022-09-11T19:44:56.327Z,15.27
2022-09-11T19:47:28.334Z,20.57
2022-09-11T19:49:58.010Z,17.53
2022-09-11T19:52:33.343Z,17.40
2022-09-11T19:55:01.985Z,15.67
2022-09-11T19:57:31.046Z,12.20
2022-09-11T20:00:00.657Z,11.30
2022-09-11T20:02:28.922Z,16.30
2022-09-11T20:04:57.051Z,10.40
2022-09-11T20:07:25.467Z,14.40
2022-09-11T20:10:00.849Z,12.50
2022-09-11T20:12:37.199Z,16.67
2022-09-11T20:15:15.717Z,13.77
2022-09-11T20:17:44.562Z,12.00
2022-09-11T20:20:13.008Z,13.37
2022-09-11T20:22:43.841Z,9.80
2022-09-11T20:25:14.001Z,10.80
2022-09-11T20:27:55.208Z,8.70
2022-09-11T20:30:29.248Z,8.40
2022-09-11T20:33:07.975Z,6.10
2022-09-11T20:35:36.934Z,8.60
2022-09-11T20:38:15.378Z,9.90
2022-09-11T20:40:51.687Z,7.40
2022-09-11T20:43:19.774Z,5.27
2022-09-11T20:45:50.680Z,5.40
2022-09-11T20:48:19.030Z,9.03
2022-09-11T20:50:47.291Z,8.10
2022-09-11T20:53:16.015Z,6.00
2022-09-11T20:55:45.461Z,5.73
2022-09-11T20:58:47.669Z,7.10
2022-09-11T21:01:21.955Z,8.17
2022-09-11T21:04:02.484Z,7.27
2022-09-11T21:06:34.787Z,7.43
2022-09-11T21:09:08.079Z,7.50
2022-09-11T21:12:06.601Z,7.70
2022-09-11T21:14:42.069Z,7.00
2022-09-11T21:17:28.605Z,5.00
2022-09-11T21:19:57.630Z,6.20
2022-09-11T21:22:26.020Z,6.50
2022-09-11T21:24:54.945Z,7.77
2022-09-11T21:27:27.577Z,7.50
2022-09-11T21:29:58.933Z,7.77
2022-09-11T21:32:43.721Z,7.20
2022-09-11T21:35:16.912Z,7.47
2022-09-11T21:38:06.564Z,7.67
2022-09-11T21:40:38.042Z,6.40
2022-09-11T21:43:16.684Z,6.80
2022-09-11T21:46:01.065Z,6.30
2022-09-11T21:48:33.722Z,6.30
2022-09-11T21:51:07.095Z,4.90
2022-09-11T21:53:37.800Z,5.67
2022-09-11T21:56:20.140Z,5.30
2022-09-11T21:58:51.527Z,5.00
2022-09-11T22:01:24.110Z,5.37
2022-09-11T22:03:55.591Z,8.53
2022-09-11T22:06:27.527Z,4.90
2022-09-11T22:09:04.140Z,6.40
2022-09-11T22:11:34.634Z,5.73
2022-09-11T22:14:23.886Z,6.70
2022-09-11T22:16:57.356Z,5.63
2022-09-11T22:19:25.489Z,4.50
2022-09-11T22:21:55.521Z,5.13
2022-09-11T22:24:26.136Z,5.50
2022-09-11T22:26:57.085Z,5.70
2022-09-11T22:29:26.655Z,6.70
2022-09-11T22:31:58.049Z,5.50
2022-09-11T22:34:28.460Z,4.90
2022-09-11T22:36:58.766Z,8.47
2022-09-11T22:39:27.787Z,5.53
2022-09-11T22:41:56.567Z,5.73
2022-09-11T22:44:27.004Z,4.27
2022-09-11T22:46:55.096Z,5.33
2022-09-11T22:49:23.772Z,5.13
2022-09-11T22:51:51.999Z,4.83
2022-09-11T22:54:20.303Z,5.93
2022-09-11T22:56:48.382Z,12.20
2022-09-11T22:59:16.700Z,6.67
2022-09-11T23:01:46.466Z,8.17
2022-09-11T23:04:14.612Z,8.03
2022-09-11T23:07:00.001Z,6.90
2022-09-11T23:09:28.310Z,5.90
2022-09-11T23:11:56.337Z,6.13
2022-09-11T23:14:24.375Z,7.43
2022-09-11T23:16:53.919Z,5.50
2022-09-11T23:19:22.583Z,9.90
2022-09-11T23:21:51.757Z,5.20
2022-09-11T23:24:20.807Z,5.40
2022-09-11T23:26:51.638Z,5.20
2022-09-11T23:29:22.700Z,4.93
2022-09-11T23:31:54.100Z,4.13
2022-09-11T23:34:27.930Z,4.23
2022-09-11T23:36:56.384Z,4.30
2022-09-11T23:39:25.877Z,4.30
2022-09-11T23:41:54.241Z,3.73
2022-09-11T23:44:22.683Z,3.47
2022-09-11T23:46:52.888Z,3.90
2022-09-11T23:49:24.582Z,4.10
2022-09-11T23:51:55.149Z,3.10
2022-09-11T23:54:23.452Z,8.90
2022-09-11T23:56:51.728Z,3.00
2022-09-11T23:59:21.399Z,3.00
